sensor_id;sensor_type;location;lat;lon;timestamp;pressure;altitude;pressure_sealevel;temperature;humidity
3096;BME280;1558;42.700;23.360;2023-08-12T00:00:22;95852.78;;;19.83;82.54
3096;BME280;1558;42.700;23.360;2023-08-12T00:02:50;95833.53;;;19.76;82.00
3096;BME280;1558;42.700;23.360;2023-08-12T00:05:18;95848.47;;;19.82;82.27
3096;BME280;1558;42.700;23.360;2023-08-12T00:07:48;95856.56;;;19.68;82.89
3096;BME280;1558;42.700;23.360;2023-08-12T00:10:16;95843.66;;;19.68;82.58
3096;BME280;1558;42.700;23.360;2023-08-12T00:12:45;95806.13;;;19.35;82.70
3096;BME280;1558;42.700;23.360;2023-08-12T00:15:13;95852.63;;;19.65;82.91
3096;BME280;1558;42.700;23.360;2023-08-12T00:17:41;95846.81;;;19.74;82.74
3096;BME280;1558;42.700;23.360;2023-08-12T00:20:10;95848.81;;;19.77;82.47
3096;BME280;1558;42.700;23.360;2023-08-12T00:22:39;95856.00;;;19.51;83.09
3096;BME280;1558;42.700;23.360;2023-08-12T00:25:09;95828.16;;;19.46;83.60
3096;BME280;1558;42.700;23.360;2023-08-12T00:27:37;95843.94;;;19.59;83.46
3096;BME280;1558;42.700;23.360;2023-08-12T00:30:06;95849.00;;;19.57;82.85
3096;BME280;1558;42.700;23.360;2023-08-12T00:32:34;95848.53;;;19.48;83.04
3096;BME280;1558;42.700;23.360;2023-08-12T00:35:03;95850.00;;;19.42;83.84
3096;BME280;1558;42.700;23.360;2023-08-12T00:37:32;95839.06;;;19.42;83.92
3096;BME280;1558;42.700;23.360;2023-08-12T00:40:00;95838.72;;;19.44;83.68
3096;BME280;1558;42.700;23.360;2023-08-12T00:42:29;95839.28;;;19.30;83.94
3096;BME280;1558;42.700;23.360;2023-08-12T00:44:58;95835.00;;;19.29;84.06
3096;BME280;1558;42.700;23.360;2023-08-12T00:47:27;95846.41;;;19.35;84.23
3096;BME280;1558;42.700;23.360;2023-08-12T00:49:57;95833.31;;;19.18;84.66
3096;BME280;1558;42.700;23.360;2023-08-12T00:52:26;95807.22;;;18.94;85.02
3096;BME280;1558;42.700;23.360;2023-08-12T00:54:54;95836.63;;;19.04;86.06
3096;BME280;1558;42.700;23.360;2023-08-12T00:57:22;95832.50;;;19.17;86.10
3096;BME280;1558;42.700;23.360;2023-08-12T00:59:52;95832.19;;;19.22;86.29
3096;BME280;1558;42.700;23.360;2023-08-12T01:02:22;95837.00;;;19.32;86.20
3096;BME280;1558;42.700;23.360;2023-08-12T01:04:50;95838.13;;;19.31;86.12
3096;BME280;1558;42.700;23.360;2023-08-12T01:07:18;95831.78;;;19.24;85.85
3096;BME280;1558;42.700;23.360;2023-08-12T01:09:47;95790.06;;;18.97;86.09
3096;BME280;1558;42.700;23.360;2023-08-12T01:12:18;95819.91;;;19.09;86.15
3096;BME280;1558;42.700;23.360;2023-08-12T01:14:57;95820.22;;;19.04;86.35
3096;BME280;1558;42.700;23.360;2023-08-12T01:17:28;95815.47;;;18.98;85.75
3096;BME280;1558;42.700;23.360;2023-08-12T01:19:58;95830.44;;;19.07;86.34
3096;BME280;1558;42.700;23.360;2023-08-12T01:22:28;95816.97;;;18.91;85.75
3096;BME280;1558;42.700;23.360;2023-08-12T01:25:00;95823.88;;;18.82;86.80
3096;BME280;1558;42.700;23.360;2023-08-12T01:27:28;95824.28;;;18.84;87.42
3096;BME280;1558;42.700;23.360;2023-08-12T01:29:56;95822.78;;;18.90;87.95
3096;BME280;1558;42.700;23.360;2023-08-12T01:32:29;95827.09;;;18.91;87.29
3096;BME280;1558;42.700;23.360;2023-08-12T01:35:05;95811.28;;;18.48;88.12
3096;BME280;1558;42.700;23.360;2023-08-12T01:37:35;95812.75;;;18.42;89.28
3096;BME280;1558;42.700;23.360;2023-08-12T01:40:07;95802.97;;;18.41;89.48
3096;BME280;1558;42.700;23.360;2023-08-12T01:42:38;95803.38;;;18.43;89.29
3096;BME280;1558;42.700;23.360;2023-08-12T01:45:07;95822.22;;;18.48;89.98
3096;BME280;1558;42.700;23.360;2023-08-12T01:47:35;95813.38;;;18.32;90.32
3096;BME280;1558;42.700;23.360;2023-08-12T01:50:04;95824.00;;;18.14;91.37
3096;BME280;1558;42.700;23.360;2023-08-12T01:52:33;95812.00;;;17.92;91.88
3096;BME280;1558;42.700;23.360;2023-08-12T01:55:01;95809.97;;;17.89;92.45
3096;BME280;1558;42.700;23.360;2023-08-12T01:57:31;95820.34;;;18.03;92.86
3096;BME280;1558;42.700;23.360;2023-08-12T02:00:00;95829.75;;;18.05;92.89
3096;BME280;1558;42.700;23.360;2023-08-12T02:02:28;95814.38;;;17.97;92.98
3096;BME280;1558;42.700;23.360;2023-08-12T02:04:56;95829.63;;;17.98;93.26
3096;BME280;1558;42.700;23.360;2023-08-12T02:07:24;95788.22;;;17.70;92.80
3096;BME280;1558;42.700;23.360;2023-08-12T02:09:52;95832.06;;;18.03;93.01
3096;BME280;1558;42.700;23.360;2023-08-12T02:12:20;95813.56;;;17.93;92.38
3096;BME280;1558;42.700;23.360;2023-08-12T02:14:50;95828.25;;;18.11;92.33
3096;BME280;1558;42.700;23.360;2023-08-12T02:17:18;95820.06;;;18.11;92.63
3096;BME280;1558;42.700;23.360;2023-08-12T02:19:46;95824.00;;;18.14;92.17
3096;BME280;1558;42.700;23.360;2023-08-12T02:22:14;95812.97;;;18.07;92.68
3096;BME280;1558;42.700;23.360;2023-08-12T02:24:54;95820.97;;;18.19;92.35
3096;BME280;1558;42.700;23.360;2023-08-12T02:27:23;95826.84;;;18.21;92.12
3096;BME280;1558;42.700;23.360;2023-08-12T02:29:53;95817.53;;;18.22;92.21
3096;BME280;1558;42.700;23.360;2023-08-12T02:32:21;95822.38;;;18.09;92.02
3096;BME280;1558;42.700;23.360;2023-08-12T02:34:50;95830.50;;;18.28;92.59
3096;BME280;1558;42.700;23.360;2023-08-12T02:37:18;95831.34;;;18.33;91.86
3096;BME280;1558;42.700;23.360;2023-08-12T02:39:46;95830.78;;;18.23;91.80
3096;BME280;1558;42.700;23.360;2023-08-12T02:42:14;95831.25;;;18.25;91.82
3096;BME280;1558;42.700;23.360;2023-08-12T02:44:42;95828.63;;;18.10;92.12
3096;BME280;1558;42.700;23.360;2023-08-12T02:47:11;95838.88;;;18.16;92.72
3096;BME280;1558;42.700;23.360;2023-08-12T02:49:40;95798.66;;;17.87;92.50
3096;BME280;1558;42.700;23.360;2023-08-12T02:52:08;95843.81;;;18.07;92.89
3096;BME280;1558;42.700;23.360;2023-08-12T02:54:36;95833.59;;;18.04;93.10
3096;BME280;1558;42.700;23.360;2023-08-12T02:57:04;95835.09;;;17.98;93.79
3096;BME280;1558;42.700;23.360;2023-08-12T02:59:32;95842.97;;;18.03;93.62
3096;BME280;1558;42.700;23.360;2023-08-12T03:02:00;95824.47;;;17.93;93.75
3096;BME280;1558;42.700;23.360;2023-08-12T03:04:31;95845.41;;;18.08;93.28
3096;BME280;1558;42.700;23.360;2023-08-12T03:06:59;95826.53;;;18.00;92.53
3096;BME280;1558;42.700;23.360;2023-08-12T03:09:27;95843.47;;;18.09;92.31
3096;BME280;1558;42.700;23.360;2023-08-12T03:11:55;95839.44;;;18.03;92.26
3096;BME280;1558;42.700;23.360;2023-08-12T03:14:23;95851.84;;;17.97;92.58
3096;BME280;1558;42.700;23.360;2023-08-12T03:16:51;95846.25;;;17.90;92.89
3096;BME280;1558;42.700;23.360;2023-08-12T03:19:19;95810.53;;;17.76;93.46
3096;BME280;1558;42.700;23.360;2023-08-12T03:21:48;95851.22;;;17.84;93.72
3096;BME280;1558;42.700;23.360;2023-08-12T03:24:16;95856.03;;;17.68;94.41
3096;BME280;1558;42.700;23.360;2023-08-12T03:26:44;95858.75;;;17.68;95.59
3096;BME280;1558;42.700;23.360;2023-08-12T03:29:12;95857.69;;;17.76;95.97
3096;BME280;1558;42.700;23.360;2023-08-12T03:31:40;95859.09;;;17.67;95.30
3096;BME280;1558;42.700;23.360;2023-08-12T03:34:08;95865.00;;;17.49;95.95
3096;BME280;1558;42.700;23.360;2023-08-12T03:36:37;95844.44;;;17.33;96.25
3096;BME280;1558;42.700;23.360;2023-08-12T03:39:06;95862.44;;;17.37;97.31
3096;BME280;1558;42.700;23.360;2023-08-12T03:41:34;95863.34;;;17.26;97.34
3096;BME280;1558;42.700;23.360;2023-08-12T03:44:03;95823.63;;;16.86;98.70
3096;BME280;1558;42.700;23.360;2023-08-12T03:46:31;95865.78;;;17.12;99.16
3096;BME280;1558;42.700;23.360;2023-08-12T03:49:00;95860.47;;;17.19;99.93
3096;BME280;1558;42.700;23.360;2023-08-12T03:51:28;95831.28;;;17.00;99.64
3096;BME280;1558;42.700;23.360;2023-08-12T03:53:56;95862.91;;;17.24;99.37
3096;BME280;1558;42.700;23.360;2023-08-12T03:56:25;95866.16;;;17.10;99.86
3096;BME280;1558;42.700;23.360;2023-08-12T03:58:53;95854.41;;;17.06;100.00
3096;BME280;1558;42.700;23.360;2023-08-12T04:01:21;95870.53;;;17.15;100.00
3096;BME280;1558;42.700;23.360;2023-08-12T04:03:50;95867.38;;;17.13;100.00
3096;BME280;1558;42.700;23.360;2023-08-12T04:06:18;95870.38;;;17.08;100.00
3096;BME280;1558;42.700;23.360;2023-08-12T04:08:46;95866.81;;;16.84;100.00
3096;BME280;1558;42.700;23.360;2023-08-12T04:11:14;95868.66;;;16.80;100.00
3096;BME280;1558;42.700;23.360;2023-08-12T04:13:43;95875.78;;;17.04;100.00
3096;BME280;1558;42.700;23.360;2023-08-12T04:16:11;95852.63;;;17.14;100.00
3096;BME280;1558;42.700;23.360;2023-08-12T04:18:40;95864.69;;;17.35;100.00
3096;BME280;1558;42.700;23.360;2023-08-12T04:21:09;95878.28;;;17.51;100.00
3096;BME280;1558;42.700;23.360;2023-08-12T04:23:37;95879.28;;;17.62;99.49
3096;BME280;1558;42.700;23.360;2023-08-12T04:26:05;95881.00;;;17.70;98.49
3096;BME280;1558;42.700;23.360;2023-08-12T04:28:33;95878.53;;;17.84;97.23
3096;BME280;1558;42.700;23.360;2023-08-12T04:31:06;95821.13;;;17.58;95.63
3096;BME280;1558;42.700;23.360;2023-08-12T04:33:34;95868.97;;;17.97;95.43
3096;BME280;1558;42.700;23.360;2023-08-12T04:36:03;95869.44;;;19.04;94.13
3096;BME280;1558;42.700;23.360;2023-08-12T04:38:31;95871.84;;;20.16;86.79
3096;BME280;1558;42.700;23.360;2023-08-12T04:40:59;95865.03;;;20.98;82.40
3096;BME280;1558;42.700;23.360;2023-08-12T04:43:28;95875.09;;;21.48;79.35
3096;BME280;1558;42.700;23.360;2023-08-12T04:45:56;95881.16;;;22.27;76.46
3096;BME280;1558;42.700;23.360;2023-08-12T04:48:26;95877.63;;;22.59;73.37
3096;BME280;1558;42.700;23.360;2023-08-12T04:50:54;95870.94;;;22.53;71.83
3096;BME280;1558;42.700;23.360;2023-08-12T04:53:27;95861.53;;;22.64;71.42
3096;BME280;1558;42.700;23.360;2023-08-12T04:55:55;95863.09;;;22.72;69.60
3096;BME280;1558;42.700;23.360;2023-08-12T04:58:23;95868.19;;;22.14;70.39
3096;BME280;1558;42.700;23.360;2023-08-12T05:00:51;95870.44;;;21.66;71.16
3096;BME280;1558;42.700;23.360;2023-08-12T05:03:20;95880.63;;;21.62;71.88
3096;BME280;1558;42.700;23.360;2023-08-12T05:05:50;95864.91;;;21.52;72.81
3096;BME280;1558;42.700;23.360;2023-08-12T05:08:19;95865.06;;;22.75;70.44
3096;BME280;1558;42.700;23.360;2023-08-12T05:10:47;95852.28;;;23.34;66.66
3096;BME280;1558;42.700;23.360;2023-08-12T05:13:16;95859.63;;;23.73;66.47
3096;BME280;1558;42.700;23.360;2023-08-12T05:15:45;95881.44;;;24.63;62.65
3096;BME280;1558;42.700;23.360;2023-08-12T05:18:14;95840.91;;;24.05;62.49
3096;BME280;1558;42.700;23.360;2023-08-12T05:20:42;95873.44;;;23.69;62.94
3096;BME280;1558;42.700;23.360;2023-08-12T05:23:14;95875.91;;;23.42;64.59
3096;BME280;1558;42.700;23.360;2023-08-12T05:25:42;95842.03;;;23.49;63.80
3096;BME280;1558;42.700;23.360;2023-08-12T05:28:10;95872.78;;;23.23;63.99
3096;BME280;1558;42.700;23.360;2023-08-12T05:30:38;95881.06;;;23.26;66.32
3096;BME280;1558;42.700;23.360;2023-08-12T05:33:06;95888.78;;;23.67;65.35
3096;BME280;1558;42.700;23.360;2023-08-12T05:35:35;95886.47;;;24.27;64.09
3096;BME280;1558;42.700;23.360;2023-08-12T05:38:03;95893.25;;;25.11;62.33
3096;BME280;1558;42.700;23.360;2023-08-12T05:40:33;95886.63;;;25.39;60.39
3096;BME280;1558;42.700;23.360;2023-08-12T05:43:01;95888.84;;;25.17;60.00
3096;BME280;1558;42.700;23.360;2023-08-12T05:45:29;95874.81;;;25.01;59.53
3096;BME280;1558;42.700;23.360;2023-08-12T05:47:57;95884.69;;;25.36;59.79
3096;BME280;1558;42.700;23.360;2023-08-12T05:50:25;95897.50;;;25.87;58.06
3096;BME280;1558;42.700;23.360;2023-08-12T05:52:53;95867.34;;;25.69;56.69
3096;BME280;1558;42.700;23.360;2023-08-12T05:55:21;95876.81;;;25.34;57.64
3096;BME280;1558;42.700;23.360;2023-08-12T05:57:51;95830.25;;;24.14;58.86
3096;BME280;1558;42.700;23.360;2023-08-12T06:00:19;95885.81;;;24.09;60.98
3096;BME280;1558;42.700;23.360;2023-08-12T06:02:47;95868.69;;;25.20;59.14
3096;BME280;1558;42.700;23.360;2023-08-12T06:05:18;95830.91;;;25.47;57.41
3096;BME280;1558;42.700;23.360;2023-08-12T06:07:46;95874.06;;;26.25;55.19
3096;BME280;1558;42.700;23.360;2023-08-12T06:10:14;95875.19;;;26.54;54.91
3096;BME280;1558;42.700;23.360;2023-08-12T06:12:42;95837.22;;;26.55;53.29
3096;BME280;1558;42.700;23.360;2023-08-12T06:15:12;95870.88;;;27.00;52.94
3096;BME280;1558;42.700;23.360;2023-08-12T06:17:40;95863.09;;;26.91;51.87
3096;BME280;1558;42.700;23.360;2023-08-12T06:20:09;95863.84;;;27.15;52.09
3096;BME280;1558;42.700;23.360;2023-08-12T06:22:37;95857.28;;;27.28;50.83
3096;BME280;1558;42.700;23.360;2023-08-12T06:25:05;95867.41;;;27.38;51.39
3096;BME280;1558;42.700;23.360;2023-08-12T06:27:33;95827.03;;;27.37;50.84
3096;BME280;1558;42.700;23.360;2023-08-12T06:30:01;95839.47;;;28.04;49.99
3096;BME280;1558;42.700;23.360;2023-08-12T06:32:31;95863.31;;;28.18;49.57
3096;BME280;1558;42.700;23.360;2023-08-12T06:35:01;95845.03;;;28.21;49.08
3096;BME280;1558;42.700;23.360;2023-08-12T06:37:29;95854.69;;;27.77;49.08
3096;BME280;1558;42.700;23.360;2023-08-12T06:39:57;95839.81;;;28.39;48.73
3096;BME280;1558;42.700;23.360;2023-08-12T06:42:25;95848.16;;;28.39;48.18
3096;BME280;1558;42.700;23.360;2023-08-12T06:44:54;95841.91;;;28.35;47.23
3096;BME280;1558;42.700;23.360;2023-08-12T06:47:23;95846.28;;;28.68;47.66
3096;BME280;1558;42.700;23.360;2023-08-12T06:49:54;95834.91;;;28.78;46.71
3096;BME280;1558;42.700;23.360;2023-08-12T06:52:22;95798.25;;;28.51;46.90
3096;BME280;1558;42.700;23.360;2023-08-12T06:54:50;95812.06;;;28.39;46.80
3096;BME280;1558;42.700;23.360;2023-08-12T06:57:19;95843.91;;;27.98;46.62
3096;BME280;1558;42.700;23.360;2023-08-12T06:59:47;95842.09;;;28.44;47.13
3096;BME280;1558;42.700;23.360;2023-08-12T07:02:15;95850.97;;;28.71;46.06
3096;BME280;1558;42.700;23.360;2023-08-12T07:04:43;95845.97;;;28.95;45.56
3096;BME280;1558;42.700;23.360;2023-08-12T07:07:12;95836.56;;;28.76;45.39
3096;BME280;1558;42.700;23.360;2023-08-12T07:09:40;95836.28;;;28.54;45.33
3096;BME280;1558;42.700;23.360;2023-08-12T07:12:08;95843.31;;;28.43;46.45
3096;BME280;1558;42.700;23.360;2023-08-12T07:14:37;95819.00;;;29.08;46.26
3096;BME280;1558;42.700;23.360;2023-08-12T07:17:05;95841.25;;;29.65;44.54
3096;BME280;1558;42.700;23.360;2023-08-12T07:19:33;95788.84;;;29.22;45.05
3096;BME280;1558;42.700;23.360;2023-08-12T07:22:02;95821.44;;;29.22;43.82
3096;BME280;1558;42.700;23.360;2023-08-12T07:24:31;95836.34;;;29.69;43.81
3096;BME280;1558;42.700;23.360;2023-08-12T07:26:59;95822.66;;;29.21;43.01
3096;BME280;1558;42.700;23.360;2023-08-12T07:29:27;95833.63;;;29.40;44.38
3096;BME280;1558;42.700;23.360;2023-08-12T07:31:56;95834.13;;;29.64;43.29
3096;BME280;1558;42.700;23.360;2023-08-12T07:34:24;95830.97;;;30.29;43.15
3096;BME280;1558;42.700;23.360;2023-08-12T07:36:56;95824.06;;;30.46;41.43
3096;BME280;1558;42.700;23.360;2023-08-12T07:39:24;95827.41;;;30.53;40.54
3096;BME280;1558;42.700;23.360;2023-08-12T07:41:54;95828.63;;;29.48;41.24
3096;BME280;1558;42.700;23.360;2023-08-12T07:44:22;95828.81;;;29.41;43.12
3096;BME280;1558;42.700;23.360;2023-08-12T07:46:50;95829.41;;;30.53;41.75
3096;BME280;1558;42.700;23.360;2023-08-12T07:49:18;95825.19;;;30.48;41.87
3096;BME280;1558;42.700;23.360;2023-08-12T07:51:46;95769.59;;;30.20;40.80
3096;BME280;1558;42.700;23.360;2023-08-12T07:54:14;95829.25;;;30.94;40.67
3096;BME280;1558;42.700;23.360;2023-08-12T07:56:42;95807.03;;;30.06;41.01
3096;BME280;1558;42.700;23.360;2023-08-12T07:59:12;95811.72;;;29.55;41.43
3096;BME280;1558;42.700;23.360;2023-08-12T08:01:40;95812.59;;;29.93;42.35
3096;BME280;1558;42.700;23.360;2023-08-12T08:04:08;95818.25;;;30.53;41.04
3096;BME280;1558;42.700;23.360;2023-08-12T08:06:36;95812.28;;;31.23;40.39
3096;BME280;1558;42.700;23.360;2023-08-12T08:09:04;95806.91;;;31.72;38.95
3096;BME280;1558;42.700;23.360;2023-08-12T08:11:32;95816.34;;;31.43;38.15
3096;BME280;1558;42.700;23.360;2023-08-12T08:14:01;95809.72;;;30.35;39.61
3096;BME280;1558;42.700;23.360;2023-08-12T08:16:30;95811.72;;;30.81;39.14
3096;BME280;1558;42.700;23.360;2023-08-12T08:18:58;95797.13;;;31.45;38.45
3096;BME280;1558;42.700;23.360;2023-08-12T08:21:27;95802.63;;;31.58;37.58
3096;BME280;1558;42.700;23.360;2023-08-12T08:23:54;95796.84;;;31.53;36.83
3096;BME280;1558;42.700;23.360;2023-08-12T08:26:23;95747.25;;;31.26;36.33
3096;BME280;1558;42.700;23.360;2023-08-12T08:28:52;95804.31;;;31.34;36.89
3096;BME280;1558;42.700;23.360;2023-08-12T08:31:20;95803.03;;;30.45;37.98
3096;BME280;1558;42.700;23.360;2023-08-12T08:33:50;95796.91;;;30.84;38.34
3096;BME280;1558;42.700;23.360;2023-08-12T08:36:18;95795.06;;;31.59;37.28
3096;BME280;1558;42.700;23.360;2023-08-12T08:38:47;95792.38;;;31.86;36.25
3096;BME280;1558;42.700;23.360;2023-08-12T08:41:16;95788.38;;;31.87;35.66
3096;BME280;1558;42.700;23.360;2023-08-12T08:43:47;95750.94;;;31.44;35.54
3096;BME280;1558;42.700;23.360;2023-08-12T08:46:16;95785.38;;;32.03;35.71
3096;BME280;1558;42.700;23.360;2023-08-12T08:48:44;95792.41;;;32.56;35.40
3096;BME280;1558;42.700;23.360;2023-08-12T08:51:14;95732.81;;;31.80;35.33
3096;BME280;1558;42.700;23.360;2023-08-12T08:53:42;95767.25;;;32.17;35.78
3096;BME280;1558;42.700;23.360;2023-08-12T08:56:11;95771.66;;;31.96;35.89
3096;BME280;1558;42.700;23.360;2023-08-12T08:58:41;95772.09;;;32.16;35.42
3096;BME280;1558;42.700;23.360;2023-08-12T09:01:10;95780.63;;;32.89;34.76
3096;BME280;1558;42.700;23.360;2023-08-12T09:03:39;95715.72;;;33.03;34.43
3096;BME280;1558;42.700;23.360;2023-08-12T09:06:08;95771.78;;;33.26;33.76
3096;BME280;1558;42.700;23.360;2023-08-12T09:08:40;95765.75;;;33.10;34.28
3096;BME280;1558;42.700;23.360;2023-08-12T09:11:09;95774.72;;;32.96;34.18
3096;BME280;1558;42.700;23.360;2023-08-12T09:13:37;95766.06;;;33.03;34.46
3096;BME280;1558;42.700;23.360;2023-08-12T09:16:05;95767.75;;;32.73;33.46
3096;BME280;1558;42.700;23.360;2023-08-12T09:18:34;95749.16;;;32.30;34.73
3096;BME280;1558;42.700;23.360;2023-08-12T09:21:02;95734.09;;;32.28;34.86
3096;BME280;1558;42.700;23.360;2023-08-12T09:23:34;95756.00;;;32.38;33.55
3096;BME280;1558;42.700;23.360;2023-08-12T09:26:12;95755.13;;;32.50;34.44
3096;BME280;1558;42.700;23.360;2023-08-12T09:28:40;95756.88;;;32.75;33.52
3096;BME280;1558;42.700;23.360;2023-08-12T09:31:21;95711.69;;;32.00;33.60
3096;BME280;1558;42.700;23.360;2023-08-12T09:33:51;95725.19;;;32.02;34.54
3096;BME280;1558;42.700;23.360;2023-08-12T09:36:21;95711.94;;;31.54;34.05
3096;BME280;1558;42.700;23.360;2023-08-12T09:38:51;95744.25;;;31.64;34.82
3096;BME280;1558;42.700;23.360;2023-08-12T09:41:22;95742.72;;;32.60;34.16
3096;BME280;1558;42.700;23.360;2023-08-12T09:43:51;95733.25;;;32.67;33.52
3096;BME280;1558;42.700;23.360;2023-08-12T09:46:22;95736.91;;;31.88;34.02
3096;BME280;1558;42.700;23.360;2023-08-12T09:48:51;95722.53;;;32.93;33.48
3096;BME280;1558;42.700;23.360;2023-08-12T09:51:19;95727.38;;;33.79;31.70
3096;BME280;1558;42.700;23.360;2023-08-12T09:53:49;95691.75;;;32.93;32.62
3096;BME280;1558;42.700;23.360;2023-08-12T09:56:22;95686.19;;;32.74;33.20
3096;BME280;1558;42.700;23.360;2023-08-12T09:58:52;95684.69;;;33.93;33.16
3096;BME280;1558;42.700;23.360;2023-08-12T10:01:21;95717.84;;;34.51;31.80
3096;BME280;1558;42.700;23.360;2023-08-12T10:03:50;95708.16;;;34.76;31.07
3096;BME280;1558;42.700;23.360;2023-08-12T10:06:20;95710.97;;;35.14;30.65
3096;BME280;1558;42.700;23.360;2023-08-12T10:08:49;95706.09;;;35.00;31.22
3096;BME280;1558;42.700;23.360;2023-08-12T10:11:19;95704.50;;;35.23;31.23
3096;BME280;1558;42.700;23.360;2023-08-12T10:13:48;95706.72;;;34.10;30.95
3096;BME280;1558;42.700;23.360;2023-08-12T10:16:17;95664.94;;;33.46;31.87
3096;BME280;1558;42.700;23.360;2023-08-12T10:18:46;95661.34;;;33.55;31.50
3096;BME280;1558;42.700;23.360;2023-08-12T10:21:15;95712.63;;;34.12;30.84
3096;BME280;1558;42.700;23.360;2023-08-12T10:23:44;95692.97;;;34.68;30.18
3096;BME280;1558;42.700;23.360;2023-08-12T10:26:14;95698.88;;;33.39;30.53
3096;BME280;1558;42.700;23.360;2023-08-12T10:28:44;95701.97;;;33.41;31.34
3096;BME280;1558;42.700;23.360;2023-08-12T10:31:12;95696.28;;;33.08;30.93
3096;BME280;1558;42.700;23.360;2023-08-12T10:33:41;95677.81;;;33.11;30.56
3096;BME280;1558;42.700;23.360;2023-08-12T10:36:10;95692.94;;;33.97;29.91
3096;BME280;1558;42.700;23.360;2023-08-12T10:38:38;95691.13;;;35.03;29.36
3096;BME280;1558;42.700;23.360;2023-08-12T10:41:24;95679.97;;;34.94;29.50
3096;BME280;1558;42.700;23.360;2023-08-12T10:43:58;95668.16;;;34.90;29.40
3096;BME280;1558;42.700;23.360;2023-08-12T10:46:31;95647.78;;;34.04;29.87
3096;BME280;1558;42.700;23.360;2023-08-12T10:49:03;95674.31;;;35.03;29.36
3096;BME280;1558;42.700;23.360;2023-08-12T10:51:45;95674.59;;;35.34;29.27
3096;BME280;1558;42.700;23.360;2023-08-12T10:54:20;95575.88;;;34.25;29.04
3096;BME280;1558;42.700;23.360;2023-08-12T10:57:08;95656.78;;;35.67;27.91
3096;BME280;1558;42.700;23.360;2023-08-12T10:59:50;95653.56;;;35.74;26.55
3096;BME280;1558;42.700;23.360;2023-08-12T11:02:20;95655.59;;;35.00;27.51
3096;BME280;1558;42.700;23.360;2023-08-12T11:04:49;95657.00;;;35.19;28.43
3096;BME280;1558;42.700;23.360;2023-08-12T11:07:18;95654.47;;;35.21;28.01
3096;BME280;1558;42.700;23.360;2023-08-12T11:09:51;95647.88;;;35.39;28.11
3096;BME280;1558;42.700;23.360;2023-08-12T11:12:29;95657.03;;;35.83;27.69
3096;BME280;1558;42.700;23.360;2023-08-12T11:14:59;95649.72;;;36.61;26.75
3096;BME280;1558;42.700;23.360;2023-08-12T11:17:30;95644.66;;;36.91;25.25
3096;BME280;1558;42.700;23.360;2023-08-12T11:20:00;95649.94;;;36.03;25.34
3096;BME280;1558;42.700;23.360;2023-08-12T11:22:31;95640.59;;;35.62;26.72
3096;BME280;1558;42.700;23.360;2023-08-12T11:25:00;95653.31;;;35.13;27.00
3096;BME280;1558;42.700;23.360;2023-08-12T11:27:36;95657.41;;;34.03;28.55
3096;BME280;1558;42.700;23.360;2023-08-12T11:30:07;95596.66;;;33.85;27.98
3096;BME280;1558;42.700;23.360;2023-08-12T11:32:36;95639.13;;;34.79;27.58
3096;BME280;1558;42.700;23.360;2023-08-12T11:35:06;95611.28;;;35.33;26.38
3096;BME280;1558;42.700;23.360;2023-08-12T11:37:36;95633.69;;;33.89;27.80
3096;BME280;1558;42.700;23.360;2023-08-12T11:40:06;95624.88;;;34.53;27.34
3096;BME280;1558;42.700;23.360;2023-08-12T11:42:36;95579.22;;;34.14;25.64
3096;BME280;1558;42.700;23.360;2023-08-12T11:45:06;95625.28;;;34.37;25.71
3096;BME280;1558;42.700;23.360;2023-08-12T11:47:36;95622.97;;;34.88;25.50
3096;BME280;1558;42.700;23.360;2023-08-12T11:50:05;95617.22;;;33.82;27.41
3096;BME280;1558;42.700;23.360;2023-08-12T11:52:34;95634.09;;;34.68;26.92
3096;BME280;1558;42.700;23.360;2023-08-12T11:55:04;95624.13;;;36.04;25.40
3096;BME280;1558;42.700;23.360;2023-08-12T11:57:33;95619.00;;;35.68;24.90
3096;BME280;1558;42.700;23.360;2023-08-12T12:00:03;95620.66;;;34.10;26.37
3096;BME280;1558;42.700;23.360;2023-08-12T12:02:46;95610.84;;;32.89;27.70
3096;BME280;1558;42.700;23.360;2023-08-12T12:05:16;95591.97;;;32.66;28.90
3096;BME280;1558;42.700;23.360;2023-08-12T12:07:49;95612.63;;;33.28;29.15
3096;BME280;1558;42.700;23.360;2023-08-12T12:10:19;95602.44;;;32.98;29.88
3096;BME280;1558;42.700;23.360;2023-08-12T12:12:48;95611.81;;;34.02;29.20
3096;BME280;1558;42.700;23.360;2023-08-12T12:15:16;95588.03;;;33.74;29.23
3096;BME280;1558;42.700;23.360;2023-08-12T12:17:47;95566.84;;;33.08;29.99
3096;BME280;1558;42.700;23.360;2023-08-12T12:20:15;95582.78;;;32.47;30.14
3096;BME280;1558;42.700;23.360;2023-08-12T12:22:44;95606.56;;;33.30;29.60
3096;BME280;1558;42.700;23.360;2023-08-12T12:25:14;95600.09;;;33.15;29.09
3096;BME280;1558;42.700;23.360;2023-08-12T12:27:45;95603.44;;;32.14;30.17
3096;BME280;1558;42.700;23.360;2023-08-12T12:30:15;95591.25;;;31.71;30.81
3096;BME280;1558;42.700;23.360;2023-08-12T12:32:44;95605.91;;;31.44;31.88
3096;BME280;1558;42.700;23.360;2023-08-12T12:35:14;95592.47;;;30.69;32.96
3096;BME280;1558;42.700;23.360;2023-08-12T12:37:42;95592.91;;;30.46;33.58
3096;BME280;1558;42.700;23.360;2023-08-12T12:40:11;95585.47;;;30.08;33.63
3096;BME280;1558;42.700;23.360;2023-08-12T12:42:39;95598.78;;;29.79;33.27
3096;BME280;1558;42.700;23.360;2023-08-12T12:45:08;95565.22;;;29.61;32.96
3096;BME280;1558;42.700;23.360;2023-08-12T12:47:37;95594.63;;;29.96;33.38
3096;BME280;1558;42.700;23.360;2023-08-12T12:50:06;95557.84;;;29.80;33.43
3096;BME280;1558;42.700;23.360;2023-08-12T12:52:36;95577.13;;;30.08;33.62
3096;BME280;1558;42.700;23.360;2023-08-12T12:55:04;95574.69;;;30.32;33.57
3096;BME280;1558;42.700;23.360;2023-08-12T12:57:32;95564.59;;;31.30;32.72
3096;BME280;1558;42.700;23.360;2023-08-12T13:00:01;95576.13;;;32.45;31.39
3096;BME280;1558;42.700;23.360;2023-08-12T13:02:30;95572.03;;;32.82;30.46
3096;BME280;1558;42.700;23.360;2023-08-12T13:04:59;95579.09;;;33.19;30.54
3096;BME280;1558;42.700;23.360;2023-08-12T13:07:27;95570.06;;;33.24;30.14
3096;BME280;1558;42.700;23.360;2023-08-12T13:09:58;95567.78;;;33.05;30.52
3096;BME280;1558;42.700;23.360;2023-08-12T13:12:26;95558.94;;;33.06;30.33
3096;BME280;1558;42.700;23.360;2023-08-12T13:14:53;95562.91;;;32.72;30.51
3096;BME280;1558;42.700;23.360;2023-08-12T13:17:21;95524.56;;;32.46;30.51
3096;BME280;1558;42.700;23.360;2023-08-12T13:19:50;95560.56;;;32.80;30.64